Авиационная погода в Mărculeşti International Airport

Регион: 
Погода METAR: 
LUBM 201100Z 30008KT 200V320 CAVOK 03/M06 Q1012
Время наблюдения
2022-01-20T11:00:00Z
Температура C
3.0
Точка росы
-6.0
Направление ветра
300
Скорость ветра (узлы)
8
Метео видимость
6.21
Облачность
CAVOK
Нижняя граница облачности (футы)
Явления погоды
Условия полета
VFR